Time;durP1;ratioP1;P1;durP2;ratioP2;P2;SDS_P1;SDS_P2;PMS_P1;PMS_P2;Temp;Humidity;BMP_temperature;BMP_pressure;BME280_temperature;BME280_humidity;BME280_pressure;Samples;Min_cycle;Max_cycle;Signal;HPM_P1;HPM_P2
2023/03/23 00:01:01;;;;;;;6.70;2.38;;;12.30;99.90;;;;;;4784871;30;20108;-84
2023/03/23 00:03:28;;;;;;;5.88;2.60;;;12.30;99.90;;;;;;4771240;30;20543;-84
2023/03/23 00:06:02;;;;;;;5.13;2.70;;;12.30;99.90;;;;;;4771197;30;20063;-85
2023/03/23 00:08:28;;;;;;;5.63;2.50;;;12.30;99.90;;;;;;4770275;30;20044;-84
2023/03/23 00:10:58;;;;;;;5.30;2.65;;;12.40;99.90;;;;;;4770391;30;20097;-84
2023/03/23 00:13:28;;;;;;;7.25;2.42;;;12.30;99.90;;;;;;4784432;30;20035;-84
2023/03/23 00:15:56;;;;;;;5.30;2.45;;;12.40;99.90;;;;;;4771169;30;20042;-83
2023/03/23 00:18:23;;;;;;;6.38;2.42;;;12.30;99.90;;;;;;4755063;30;20039;-84
2023/03/23 00:20:55;;;;;;;8.55;2.60;;;12.30;99.90;;;;;;4769474;30;20032;-84
2023/03/23 00:23:23;;;;;;;4.70;2.38;;;12.40;99.90;;;;;;4770673;30;20115;-83
2023/03/23 00:25:52;;;;;;;4.22;2.60;;;12.40;99.90;;;;;;4770410;30;20028;-84
2023/03/23 00:28:24;;;;;;;5.85;2.72;;;12.40;99.90;;;;;;4784264;30;20099;-83
2023/03/23 00:30:56;;;;;;;4.63;2.42;;;12.30;99.90;;;;;;4770759;30;20047;-84
2023/03/23 00:33:23;;;;;;;6.72;2.70;;;12.40;99.90;;;;;;4770670;30;20077;-84
2023/03/23 00:35:52;;;;;;;4.63;2.30;;;12.30;99.90;;;;;;4783667;30;20087;-85
2023/03/23 00:38:21;;;;;;;6.20;2.58;;;12.30;99.90;;;;;;4772765;30;20050;-84
2023/03/23 00:40:47;;;;;;;5.88;2.55;;;12.30;99.90;;;;;;4787294;30;20541;-85
2023/03/23 00:43:18;;;;;;;6.38;2.63;;;12.40;99.90;;;;;;4772166;30;20122;-83
2023/03/23 00:45:49;;;;;;;7.78;2.72;;;12.30;99.90;;;;;;4787114;30;20032;-82
2023/03/23 00:48:15;;;;;;;5.20;2.33;;;12.30;99.90;;;;;;4773397;30;20035;-84
2023/03/23 00:50:40;;;;;;;6.72;2.20;;;12.30;99.90;;;;;;4772961;30;20374;-84
2023/03/23 00:53:06;;;;;;;6.55;2.42;;;12.30;99.90;;;;;;4772021;30;20047;-83
2023/03/23 00:55:33;;;;;;;5.07;2.28;;;12.30;99.90;;;;;;4788526;30;20473;-84
2023/03/23 00:57:59;;;;;;;6.68;2.00;;;12.30;99.90;;;;;;4772061;30;20059;-84
2023/03/23 01:00:26;;;;;;;6.22;2.50;;;12.40;99.90;;;;;;4788463;30;20125;-84
2023/03/23 01:02:54;;;;;;;4.13;2.38;;;12.40;99.90;;;;;;4788377;30;20031;-84
2023/03/23 01:05:20;;;;;;;5.13;2.13;;;12.40;99.90;;;;;;4787872;30;20035;-84
2023/03/23 01:07:46;;;;;;;6.78;2.80;;;12.40;99.90;;;;;;4786885;30;20035;-83
2023/03/23 01:10:15;;;;;;;5.32;2.30;;;12.40;99.90;;;;;;4772084;30;20040;-84
2023/03/23 01:12:43;;;;;;;8.07;2.50;;;12.40;99.90;;;;;;4773032;30;20043;-84
2023/03/23 01:15:12;;;;;;;5.18;2.65;;;12.40;99.90;;;;;;4787091;30;20055;-84
2023/03/23 01:17:38;;;;;;;6.38;2.40;;;12.40;99.90;;;;;;4772076;30;20092;-84
2023/03/23 01:20:06;;;;;;;5.65;2.33;;;12.30;99.90;;;;;;4772010;29;20047;-84
2023/03/23 01:22:32;;;;;;;5.05;2.53;;;12.30;99.90;;;;;;4774611;30;20472;-83
2023/03/23 01:24:58;;;;;;;4.68;2.38;;;12.30;99.90;;;;;;4791239;30;20031;-85
2023/03/23 01:27:24;;;;;;;6.72;2.33;;;12.30;99.90;;;;;;4790511;30;20560;-84
2023/03/23 01:29:50;;;;;;;6.78;2.40;;;12.30;99.90;;;;;;4775602;30;20446;-83
2023/03/23 01:32:16;;;;;;;4.82;2.30;;;12.30;99.90;;;;;;4775359;30;20058;-83
2023/03/23 01:34:41;;;;;;;5.70;2.70;;;12.30;99.90;;;;;;4775693;30;20047;-85
2023/03/23 01:37:07;;;;;;;4.28;2.60;;;12.30;99.90;;;;;;4776204;30;20071;-84
2023/03/23 01:39:35;;;;;;;6.68;2.38;;;12.30;99.90;;;;;;4776098;30;20081;-84
2023/03/23 01:42:00;;;;;;;4.82;2.00;;;12.30;99.90;;;;;;4775995;30;20037;-84
2023/03/23 01:44:26;;;;;;;3.88;2.20;;;12.30;99.90;;;;;;4792370;30;20122;-84
2023/03/23 01:46:52;;;;;;;5.38;1.77;;;12.30;99.90;;;;;;4791951;30;20450;-83
2023/03/23 01:49:24;;;;;;;4.88;1.75;;;12.40;99.90;;;;;;4791948;30;20070;-84
2023/03/23 01:51:56;;;;;;;4.60;2.40;;;12.40;99.90;;;;;;4789646;30;20488;-84
2023/03/23 01:54:24;;;;;;;4.28;1.92;;;12.40;99.90;;;;;;4791266;30;20031;-84
2023/03/23 01:56:55;;;;;;;4.70;2.15;;;12.40;99.90;;;;;;4790815;30;20047;-83
2023/03/23 01:59:22;;;;;;;3.53;2.22;;;12.40;99.90;;;;;;4774599;30;20040;-84
2023/03/23 02:01:48;;;;;;;5.15;2.05;;;12.40;99.90;;;;;;4791053;30;20047;-84
2023/03/23 02:04:16;;;;;;;6.65;1.90;;;12.40;99.90;;;;;;4790823;30;20031;-84
2023/03/23 02:06:44;;;;;;;5.25;2.20;;;12.40;99.90;;;;;;4790077;30;20035;-84
2023/03/23 02:09:13;;;;;;;4.93;2.45;;;12.40;99.90;;;;;;4774757;30;20063;-84
2023/03/23 02:11:39;;;;;;;4.32;2.15;;;12.40;99.90;;;;;;4774506;30;20099;-83
2023/03/23 02:14:05;;;;;;;2.42;2.13;;;12.40;99.90;;;;;;4774753;30;20043;-83
2023/03/23 02:16:40;;;;;;;5.05;2.35;;;12.40;99.90;;;;;;4790278;30;20161;-84
2023/03/23 02:19:55;;;;;;;3.90;2.78;;;12.40;99.90;;;;;;4789999;30;20035;-84
2023/03/23 02:22:39;;;;;;;3.45;2.55;;;12.40;99.90;;;;;;4789887;30;20036;-83
2023/03/23 02:25:37;;;;;;;5.43;2.47;;;12.40;99.90;;;;;;4790394;30;20031;-83
2023/03/23 02:28:29;;;;;;;5.43;2.83;;;12.40;99.90;;;;;;4771821;30;20039;-83
2023/03/23 02:30:55;;;;;;;6.30;2.92;;;12.40;99.90;;;;;;4774581;30;20120;-84
2023/03/23 02:33:34;;;;;;;5.15;2.63;;;12.40;99.90;;;;;;4773980;30;20089;-83
2023/03/23 02:36:05;;;;;;;6.32;3.03;;;12.40;99.90;;;;;;4790537;30;20055;-85
2023/03/23 02:38:44;;;;;;;5.40;2.58;;;12.40;99.90;;;;;;4790359;30;20028;-84
2023/03/23 02:41:11;;;;;;;4.70;3.30;;;12.40;99.90;;;;;;4790610;30;20034;-84
2023/03/23 02:43:43;;;;;;;4.05;2.90;;;12.50;99.90;;;;;;4788835;30;20027;-84
2023/03/23 02:46:10;;;;;;;3.72;2.78;;;12.50;99.90;;;;;;4790500;30;20039;-85
2023/03/23 02:48:38;;;;;;;5.38;3.00;;;12.50;99.90;;;;;;4789933;30;20031;-84
2023/03/23 02:51:06;;;;;;;4.63;3.03;;;12.50;99.90;;;;;;4788861;30;20072;-83
2023/03/23 02:53:36;;;;;;;3.13;2.60;;;12.50;99.90;;;;;;4788738;30;20036;-84
2023/03/23 02:56:04;;;;;;;3.30;2.78;;;12.50;99.90;;;;;;4790037;30;20036;-83
2023/03/23 02:58:30;;;;;;;2.92;2.50;;;12.50;99.90;;;;;;4789434;30;20449;-83
2023/03/23 03:00:58;;;;;;;4.95;2.72;;;12.50;99.90;;;;;;4789476;30;20104;-84
2023/03/23 03:03:27;;;;;;;5.72;2.75;;;12.50;99.90;;;;;;4773497;30;20472;-84
2023/03/23 03:06:17;;;;;;;4.82;2.53;;;12.50;99.90;;;;;;4789666;30;20031;-83
2023/03/23 03:08:54;;;;;;;3.05;2.47;;;12.50;99.90;;;;;;4788602;30;20055;-83
2023/03/23 03:11:30;;;;;;;3.28;2.50;;;12.50;99.90;;;;;;4789384;30;20046;-83
2023/03/23 03:14:03;;;;;;;6.05;2.90;;;12.60;99.90;;;;;;4774095;30;20406;-83
2023/03/23 03:16:42;;;;;;;4.50;2.65;;;12.50;99.90;;;;;;4790020;30;20111;-83
2023/03/23 03:19:13;;;;;;;3.63;2.42;;;12.60;99.90;;;;;;4789466;30;20473;-83
2023/03/23 03:21:42;;;;;;;3.47;2.50;;;12.60;99.90;;;;;;4789020;30;20045;-83
2023/03/23 03:24:11;;;;;;;4.15;2.83;;;12.60;99.90;;;;;;4788047;30;20054;-83
2023/03/23 03:26:40;;;;;;;3.53;2.40;;;12.60;99.90;;;;;;4789565;30;20082;-85
2023/03/23 03:29:07;;;;;;;5.13;2.92;;;12.60;99.90;;;;;;4789085;30;20058;-84
2023/03/23 03:31:38;;;;;;;4.68;2.20;;;12.60;99.90;;;;;;4772948;30;20112;-83
2023/03/23 03:34:05;;;;;;;6.95;2.92;;;12.60;99.90;;;;;;4788705;30;20046;-84
2023/03/23 03:36:37;;;;;;;4.22;2.55;;;12.60;99.90;;;;;;4789762;30;20492;-84
2023/03/23 03:39:09;;;;;;;7.18;2.90;;;12.60;99.90;;;;;;4789228;30;20453;-83
2023/03/23 03:41:37;;;;;;;4.63;2.30;;;12.60;99.90;;;;;;4787871;30;20035;-84
2023/03/23 03:44:04;;;;;;;4.28;2.53;;;12.70;99.90;;;;;;4788250;29;20039;-83
2023/03/23 03:46:30;;;;;;;5.22;2.53;;;12.60;99.90;;;;;;4772881;30;20069;-84
2023/03/23 03:48:57;;;;;;;6.57;2.80;;;12.70;99.90;;;;;;4773017;30;20093;-84
2023/03/23 03:51:24;;;;;;;4.15;2.60;;;12.70;99.90;;;;;;4788765;30;20059;-83
2023/03/23 03:53:51;;;;;;;3.60;2.35;;;12.60;99.90;;;;;;4789000;30;20039;-82
2023/03/23 03:56:16;;;;;;;5.70;2.70;;;12.60;99.90;;;;;;4773586;30;20043;-83
2023/03/23 03:58:42;;;;;;;3.70;2.33;;;12.60;99.90;;;;;;4787791;30;20540;-84
2023/03/23 04:01:13;;;;;;;5.60;2.50;;;12.60;99.90;;;;;;4758042;30;20077;-84
2023/03/23 04:03:39;;;;;;;4.40;2.58;;;12.70;99.90;;;;;;4772497;30;20111;-82
2023/03/23 04:06:05;;;;;;;2.38;1.98;;;12.70;99.90;;;;;;4788539;30;20047;-83
2023/03/23 04:08:31;;;;;;;4.97;2.67;;;12.70;99.90;;;;;;4788548;30;20042;-83
2023/03/23 04:10:57;;;;;;;5.78;2.17;;;12.70;99.90;;;;;;4772783;30;20035;-84
2023/03/23 04:13:23;;;;;;;5.05;2.40;;;12.70;99.90;;;;;;4787761;30;20035;-82
2023/03/23 04:15:49;;;;;;;5.70;2.53;;;12.70;99.90;;;;;;4772539;30;20038;-82
2023/03/23 04:18:17;;;;;;;3.25;2.35;;;12.70;99.90;;;;;;4772233;30;20028;-83
2023/03/23 04:20:46;;;;;;;3.50;2.20;;;12.70;99.90;;;;;;4788552;30;20114;-83
2023/03/23 04:23:19;;;;;;;4.78;2.30;;;12.70;99.90;;;;;;4772958;30;20035;-82
2023/03/23 04:25:49;;;;;;;;;;;12.70;99.90;;;;;;4773738;30;20065;-82
2023/03/23 04:28:23;;;;;;;3.47;2.08;;;12.70;99.90;;;;;;4788431;30;19910;-83
2023/03/23 04:30:52;;;;;;;6.47;1.90;;;12.70;99.90;;;;;;4774055;30;20043;-84
2023/03/23 04:33:19;;;;;;;3.72;2.05;;;12.80;99.90;;;;;;4787215;30;20039;-84
2023/03/23 04:35:47;;;;;;;3.42;2.25;;;12.80;99.90;;;;;;4787214;30;20062;-83
2023/03/23 04:38:15;;;;;;;5.00;1.80;;;12.80;99.90;;;;;;4787224;30;20035;-83
2023/03/23 04:40:42;;;;;;;6.07;2.13;;;12.80;99.90;;;;;;4788630;30;20043;-83
2023/03/23 04:43:08;;;;;;;6.00;2.17;;;12.80;99.90;;;;;;4787057;30;20046;-83
2023/03/23 04:45:37;;;;;;;7.22;2.72;;;12.80;99.90;;;;;;4772329;30;20477;-84
2023/03/23 04:48:04;;;;;;;7.38;1.67;;;12.80;99.90;;;;;;4788261;30;20092;-83
2023/03/23 04:50:32;;;;;;;4.25;1.92;;;12.80;99.90;;;;;;4788739;30;20070;-85
2023/03/23 04:53:03;;;;;;;5.25;1.95;;;12.80;99.90;;;;;;4772487;30;20114;-84
2023/03/23 04:55:35;;;;;;;5.50;1.58;;;12.80;99.90;;;;;;4786810;29;20063;-84
2023/03/23 04:58:02;;;;;;;6.03;1.77;;;12.90;99.90;;;;;;4791895;30;20476;-83
2023/03/23 05:00:28;;;;;;;7.05;1.65;;;12.80;99.90;;;;;;4776201;30;20074;-83
2023/03/23 05:02:55;;;;;;;8.27;2.33;;;12.90;99.90;;;;;;4791113;30;20044;-83
2023/03/23 05:05:22;;;;;;;6.18;1.67;;;12.90;99.90;;;;;;4775795;30;20172;-84
2023/03/23 05:07:48;;;;;;;5.75;1.42;;;12.90;99.90;;;;;;4791057;30;20027;-83
2023/03/23 05:10:16;;;;;;;7.32;2.03;;;12.80;99.90;;;;;;4775452;30;20039;-84
2023/03/23 05:12:42;;;;;;;8.73;1.45;;;12.90;99.90;;;;;;4791817;30;20039;-83
2023/03/23 05:15:09;;;;;;;4.82;1.75;;;12.90;99.90;;;;;;4790763;30;20058;-83
2023/03/23 05:17:35;;;;;;;5.03;1.50;;;12.90;99.90;;;;;;4791252;30;20035;-83
2023/03/23 05:20:05;;;;;;;8.60;1.80;;;12.80;99.90;;;;;;4777527;30;20059;-84
2023/03/23 05:22:33;;;;;;;7.97;1.52;;;12.90;99.90;;;;;;4776836;30;20089;-83
2023/03/23 05:25:02;;;;;;;6.07;1.58;;;12.90;99.90;;;;;;4793226;30;20115;-84
2023/03/23 05:27:30;;;;;;;7.40;1.70;;;12.90;99.90;;;;;;4792062;30;20423;-84
2023/03/23 05:29:57;;;;;;;7.95;1.23;;;12.90;99.90;;;;;;4777488;30;20038;-84
2023/03/23 05:32:28;;;;;;;6.13;1.23;;;12.90;99.90;;;;;;4776270;30;20035;-84
2023/03/23 05:34:56;;;;;;;6.72;1.30;;;12.90;99.90;;;;;;4790344;30;20059;-85
2023/03/23 05:37:22;;;;;;;8.10;1.10;;;12.90;99.90;;;;;;4775492;30;20035;-84
2023/03/23 05:39:48;;;;;;;8.18;1.10;;;12.90;99.90;;;;;;4791154;30;20043;-84
2023/03/23 05:42:13;;;;;;;7.00;1.00;;;12.90;99.90;;;;;;4775066;30;20084;-84
2023/03/23 05:44:39;;;;;;;8.48;1.42;;;12.90;99.90;;;;;;4791127;30;20434;-85
2023/03/23 05:47:05;;;;;;;8.23;1.95;;;12.80;99.90;;;;;;4791447;30;20085;-85
2023/03/23 05:49:31;;;;;;;5.88;1.05;;;12.80;99.90;;;;;;4775758;30;20484;-84
2023/03/23 05:51:57;;;;;;;6.90;0.90;;;12.90;99.90;;;;;;4791587;30;20088;-85
2023/03/23 05:54:23;;;;;;;10.02;1.13;;;12.90;99.90;;;;;;4775149;30;20039;-84
2023/03/23 05:56:48;;;;;;;7.68;0.90;;;12.80;99.90;;;;;;4775517;30;20042;-84
2023/03/23 05:59:14;;;;;;;5.88;0.90;;;12.80;99.90;;;;;;4775165;30;20039;-84
2023/03/23 06:01:40;;;;;;;6.80;0.98;;;12.80;99.90;;;;;;4774912;30;20537;-83
2023/03/23 06:04:06;;;;;;;6.45;0.80;;;12.80;99.90;;;;;;4774528;30;20040;-84
2023/03/23 06:06:34;;;;;;;7.63;0.80;;;12.80;99.90;;;;;;4774590;29;20035;-83
2023/03/23 06:09:00;;;;;;;6.63;1.13;;;12.80;99.90;;;;;;4775014;30;20496;-83
2023/03/23 06:11:26;;;;;;;6.55;0.95;;;12.80;99.90;;;;;;4791200;30;20040;-84
2023/03/23 06:13:53;;;;;;;6.47;1.02;;;12.80;99.90;;;;;;4778908;30;20040;-83
2023/03/23 06:16:19;;;;;;;5.88;0.90;;;12.80;99.90;;;;;;4796597;30;20073;-82
2023/03/23 06:18:45;;;;;;;6.28;1.00;;;12.90;99.90;;;;;;4780082;30;20035;-83
2023/03/23 06:21:11;;;;;;;6.18;1.17;;;12.80;99.90;;;;;;4795695;30;20096;-83
2023/03/23 06:23:37;;;;;;;9.77;1.10;;;12.90;99.90;;;;;;4780209;30;20446;-82
2023/03/23 06:26:07;;;;;;;5.13;0.80;;;12.90;99.90;;;;;;4778356;30;20100;-83
2023/03/23 06:28:34;;;;;;;7.07;1.02;;;12.90;99.90;;;;;;4794267;29;20032;-84
2023/03/23 06:31:06;;;;;;;6.30;1.10;;;12.80;99.90;;;;;;4792343;30;20499;-82
2023/03/23 06:33:33;;;;;;;6.63;1.00;;;12.90;99.90;;;;;;4793145;30;20031;-77
2023/03/23 06:36:00;;;;;;;7.40;1.00;;;12.90;99.90;;;;;;4788360;30;20063;-82
2023/03/23 06:38:26;;;;;;;7.05;1.00;;;12.90;99.90;;;;;;4774728;30;20043;-79
2023/03/23 06:40:53;;;;;;;4.80;0.70;;;12.90;99.90;;;;;;4774597;30;20039;-80
2023/03/23 06:43:18;;;;;;;6.90;0.93;;;12.90;99.90;;;;;;4773417;30;20470;-80
2023/03/23 06:45:44;;;;;;;9.05;1.00;;;12.90;99.90;;;;;;4772554;30;20036;-80
2023/03/23 06:48:13;;;;;;;5.75;0.90;;;12.90;99.90;;;;;;4772742;30;20039;-79
2023/03/23 06:50:42;;;;;;;7.32;0.90;;;12.90;99.90;;;;;;4773497;30;20470;-80
2023/03/23 06:53:08;;;;;;;7.60;0.88;;;12.90;99.90;;;;;;4775783;30;20450;-80
2023/03/23 06:55:33;;;;;;;7.95;1.88;;;12.90;99.90;;;;;;4757742;30;20039;-80
2023/03/23 06:58:01;;;;;;;6.30;0.98;;;12.90;99.90;;;;;;4773072;30;20077;-80
2023/03/23 07:00:27;;;;;;;9.27;0.90;;;12.80;99.90;;;;;;4771877;30;20043;-74
2023/03/23 07:02:52;;;;;;;7.75;1.02;;;12.90;99.90;;;;;;4772884;30;20036;-79
2023/03/23 07:05:18;;;;;;;4.93;0.70;;;12.90;99.90;;;;;;4770794;30;20497;-81
2023/03/23 07:07:44;;;;;;;6.22;0.88;;;12.80;99.90;;;;;;4776121;30;20036;-81
2023/03/23 07:10:11;;;;;;;4.40;0.77;;;12.90;99.90;;;;;;4772002;30;20507;-79
2023/03/23 07:12:37;;;;;;;9.85;1.40;;;12.90;99.90;;;;;;4771488;30;20052;-79
2023/03/23 07:15:04;;;;;;;7.72;1.17;;;12.90;99.90;;;;;;4770202;30;20081;-79
2023/03/23 07:17:30;;;;;;;6.45;1.05;;;12.90;99.90;;;;;;4785998;30;20108;-80
2023/03/23 07:19:56;;;;;;;9.13;1.10;;;12.90;99.90;;;;;;4773906;30;20043;-79
2023/03/23 07:22:21;;;;;;;4.82;0.75;;;12.90;99.90;;;;;;4771338;30;20059;-80
2023/03/23 07:24:47;;;;;;;8.20;1.17;;;12.90;99.90;;;;;;4785506;30;20047;-80
2023/03/23 07:27:13;;;;;;;8.63;1.50;;;12.90;99.90;;;;;;4786597;30;20039;-79
2023/03/23 07:29:39;;;;;;;9.95;1.27;;;12.90;99.90;;;;;;4772248;30;20039;-79
2023/03/23 07:32:06;;;;;;;8.88;1.50;;;12.90;99.90;;;;;;4773124;30;20048;-79
2023/03/23 07:34:32;;;;;;;8.68;1.40;;;12.90;99.90;;;;;;4774148;30;20036;-78
2023/03/23 07:36:58;;;;;;;8.50;1.02;;;12.90;99.90;;;;;;4790327;30;20070;-80
2023/03/23 07:39:25;;;;;;;8.52;1.20;;;12.90;99.90;;;;;;4794368;30;20097;-80
2023/03/23 07:41:51;;;;;;;5.65;1.00;;;13.00;99.90;;;;;;4792102;30;20036;-80
2023/03/23 07:44:17;;;;;;;6.45;0.85;;;12.90;99.90;;;;;;4783443;30;20110;-80
2023/03/23 07:46:43;;;;;;;5.45;0.60;;;12.90;99.90;;;;;;4783884;30;20075;-82
2023/03/23 07:49:10;;;;;;;2.97;0.60;;;12.90;99.90;;;;;;4781653;30;20092;-80
2023/03/23 07:51:38;;;;;;;3.03;0.40;;;12.90;99.90;;;;;;4775184;30;20047;-80
2023/03/23 07:54:04;;;;;;;2.42;0.40;;;12.80;99.90;;;;;;4780433;30;20188;-79
2023/03/23 07:56:31;;;;;;;4.53;0.77;;;12.80;99.90;;;;;;4790006;30;20042;-81
2023/03/23 07:58:56;;;;;;;4.20;0.57;;;12.80;99.90;;;;;;4773506;30;20481;-79
2023/03/23 08:01:23;;;;;;;4.13;0.80;;;12.70;99.90;;;;;;4775585;30;20043;-81
2023/03/23 08:03:50;;;;;;;3.60;0.45;;;12.70;99.90;;;;;;4791622;30;20028;-79
2023/03/23 08:06:15;;;;;;;5.30;0.90;;;12.70;99.90;;;;;;4775644;30;20103;-80
2023/03/23 08:08:41;;;;;;;5.18;0.80;;;12.60;99.90;;;;;;4779325;30;20074;-80
2023/03/23 08:11:07;;;;;;;5.07;0.70;;;12.60;99.90;;;;;;4775529;30;20079;-80
2023/03/23 08:13:36;;;;;;;6.63;0.82;;;12.50;99.90;;;;;;4790865;30;20099;-80
2023/03/23 08:16:03;;;;;;;6.25;1.25;;;12.60;99.90;;;;;;4789423;30;20493;-80
2023/03/23 08:18:30;;;;;;;7.38;0.90;;;12.60;99.90;;;;;;4788615;30;20035;-80
2023/03/23 08:20:56;;;;;;;6.45;0.90;;;12.50;99.90;;;;;;4774076;30;20054;-81
2023/03/23 08:23:21;;;;;;;4.80;0.98;;;12.60;99.90;;;;;;4759403;30;20036;-82
2023/03/23 08:25:48;;;;;;;9.35;0.90;;;12.60;99.90;;;;;;4773308;30;20126;-81
2023/03/23 08:28:14;;;;;;;5.10;1.00;;;12.60;99.90;;;;;;4773613;30;20027;-80
2023/03/23 08:30:40;;;;;;;6.85;1.02;;;12.60;99.90;;;;;;4788704;30;20495;-80
2023/03/23 08:33:08;;;;;;;6.78;0.85;;;12.60;99.90;;;;;;4790744;30;20032;-81
2023/03/23 08:35:34;;;;;;;7.70;1.17;;;12.50;99.90;;;;;;4796332;30;20055;-81
2023/03/23 08:38:00;;;;;;;9.32;1.33;;;12.50;99.90;;;;;;4781135;30;20569;-81
2023/03/23 08:40:27;;;;;;;8.10;1.20;;;12.50;99.90;;;;;;4782069;30;20043;-82
2023/03/23 08:42:53;;;;;;;4.28;1.05;;;12.60;99.90;;;;;;4776641;30;20036;-81
2023/03/23 08:45:22;;;;;;;4.13;0.90;;;12.50;99.90;;;;;;4779541;30;20028;-81
2023/03/23 08:47:55;;;;;;;9.68;1.48;;;12.60;99.90;;;;;;4795787;30;20396;-82
2023/03/23 08:50:24;;;;;;;6.70;0.88;;;12.60;99.90;;;;;;4788930;30;20051;-81
2023/03/23 08:52:51;;;;;;;9.13;1.30;;;12.60;99.90;;;;;;4790375;30;20039;-82
2023/03/23 08:55:17;;;;;;;5.25;1.00;;;12.60;99.90;;;;;;4792614;30;20526;-82
2023/03/23 08:57:44;;;;;;;3.90;0.60;;;12.60;99.90;;;;;;4791395;30;20031;-80
2023/03/23 09:00:19;;;;;;;6.53;1.15;;;12.70;99.90;;;;;;4794918;30;20381;-79
2023/03/23 09:02:47;;;;;;;6.55;0.75;;;12.70;99.90;;;;;;4790886;30;20027;-80
2023/03/23 09:05:15;;;;;;;3.92;0.65;;;12.70;99.90;;;;;;4797858;30;20027;-82
2023/03/23 09:07:44;;;;;;;5.60;0.73;;;12.70;99.90;;;;;;4780742;30;20031;-81
2023/03/23 09:10:10;;;;;;;5.72;0.65;;;12.70;99.90;;;;;;4795096;30;20031;-82
2023/03/23 09:12:39;;;;;;;4.90;0.70;;;12.70;99.90;;;;;;4799957;30;20035;-82
2023/03/23 09:15:08;;;;;;;2.33;0.50;;;12.70;99.90;;;;;;4791962;30;20504;-81
2023/03/23 09:17:49;;;;;;;4.75;0.65;;;12.70;99.90;;;;;;4789268;30;20039;-81
2023/03/23 09:20:21;;;;;;;3.08;0.40;;;12.70;99.90;;;;;;4789602;30;20122;-81
2023/03/23 09:22:49;;;;;;;3.30;0.45;;;12.70;99.90;;;;;;4791221;30;20032;-82
2023/03/23 09:25:20;;;;;;;5.25;0.70;;;12.80;99.90;;;;;;4794982;30;20042;-81
2023/03/23 09:27:53;;;;;;;4.10;1.10;;;12.80;99.90;;;;;;4791018;30;20527;-80
2023/03/23 09:30:20;;;;;;;4.28;0.60;;;13.00;99.90;;;;;;4775647;30;20091;-80
2023/03/23 09:32:47;;;;;;;2.88;0.43;;;13.00;99.90;;;;;;4776184;30;20051;-81
2023/03/23 09:35:16;;;;;;;4.72;0.55;;;13.00;99.90;;;;;;4790100;30;20057;-80
2023/03/23 09:37:44;;;;;;;4.40;0.55;;;13.00;99.90;;;;;;4793197;30;20055;-82
2023/03/23 09:40:33;;;;;;;3.67;0.30;;;13.00;99.90;;;;;;4795980;30;20070;-80
2023/03/23 09:43:09;;;;;;;5.40;0.85;;;13.10;99.90;;;;;;4793592;29;20039;-79
2023/03/23 09:46:12;;;;;;;4.00;0.70;;;13.30;99.90;;;;;;4777295;30;20035;-79
2023/03/23 09:48:47;;;;;;;4.00;0.50;;;13.30;99.90;;;;;;4781348;30;20027;-80
2023/03/23 09:51:38;;;;;;;7.18;1.05;;;13.40;99.90;;;;;;4782221;30;20100;-80
2023/03/23 09:54:13;;;;;;;5.63;0.65;;;13.40;99.90;;;;;;4797276;30;20033;-80
2023/03/23 09:56:40;;;;;;;6.55;0.85;;;13.60;99.90;;;;;;4796460;30;20034;-80
2023/03/23 09:59:42;;;;;;;3.35;0.63;;;13.70;99.90;;;;;;4785202;30;20050;-79
2023/03/23 10:02:40;;;;;;;13.68;1.60;;;14.00;99.90;;;;;;4790354;30;20488;-78
2023/03/23 10:05:30;;;;;;;8.70;1.30;;;14.30;99.90;;;;;;4784685;30;20075;-77
2023/03/23 10:07:56;;;;;;;5.68;1.13;;;14.50;99.90;;;;;;4790573;30;20033;-77
2023/03/23 10:10:33;;;;;;;10.05;0.80;;;14.50;99.90;;;;;;4790904;30;20070;-78
2023/03/23 10:13:11;;;;;;;10.13;1.15;;;14.40;99.90;;;;;;4774752;30;20039;-78
2023/03/23 10:15:39;;;;;;;12.07;1.70;;;14.30;99.90;;;;;;4792944;30;20046;-79
2023/03/23 10:18:40;;;;;;;9.93;1.15;;;14.40;99.90;;;;;;4809921;29;20015;-78
2023/03/23 10:21:13;;;;;;;7.75;1.20;;;14.50;99.90;;;;;;4800580;30;20523;-79
2023/03/23 10:23:48;;;;;;;10.30;1.27;;;14.60;99.90;;;;;;4800166;30;20065;-79
2023/03/23 10:26:22;;;;;;;7.93;1.65;;;14.70;99.90;;;;;;4794443;30;20039;-79
2023/03/23 10:28:56;;;;;;;7.95;1.40;;;14.80;99.90;;;;;;4792596;30;20526;-79
2023/03/23 10:31:35;;;;;;;8.32;1.50;;;14.80;99.90;;;;;;4792828;30;20046;-79
2023/03/23 10:34:28;;;;;;;8.25;1.27;;;14.90;99.90;;;;;;4796144;30;20027;-79
2023/03/23 10:37:13;;;;;;;8.60;1.17;;;15.00;99.70;;;;;;4788260;30;20059;-83
2023/03/23 10:39:49;;;;;;;9.82;1.50;;;15.00;99.80;;;;;;4793553;30;20039;-80
2023/03/23 10:42:26;;;;;;;11.68;1.90;;;15.10;99.80;;;;;;4792671;30;20101;-79
2023/03/23 10:44:52;;;;;;;11.25;1.67;;;15.30;99.50;;;;;;4792473;30;20538;-80
2023/03/23 10:47:18;;;;;;;7.72;1.45;;;15.30;98.70;;;;;;4776946;30;20491;-79
2023/03/23 10:49:49;;;;;;;7.93;1.60;;;15.40;98.70;;;;;;4790279;30;20114;-78
2023/03/23 10:52:35;;;;;;;10.63;1.45;;;15.50;98.90;;;;;;4782227;30;20015;-80
2023/03/23 10:55:08;;;;;;;8.60;1.92;;;15.40;98.10;;;;;;4778776;30;20067;-81
2023/03/23 10:57:39;;;;;;;10.07;1.50;;;15.40;98.00;;;;;;4795896;30;20339;-80
2023/03/23 11:00:28;;;;;;;10.50;1.30;;;15.30;98.20;;;;;;4794337;30;20039;-80
2023/03/23 11:03:00;;;;;;;11.38;1.40;;;15.20;98.40;;;;;;4791500;30;20078;-77
2023/03/23 11:05:33;;;;;;;9.38;1.60;;;15.10;98.20;;;;;;4795019;30;20031;-80
2023/03/23 11:08:01;;;;;;;8.95;1.15;;;15.00;97.70;;;;;;4791541;30;20091;-75
2023/03/23 11:10:35;;;;;;;18.38;2.30;;;14.90;98.00;;;;;;4789484;30;20618;-76
2023/03/23 11:13:01;;;;;;;10.45;1.42;;;15.10;98.50;;;;;;4789481;30;20596;-75
2023/03/23 11:15:37;;;;;;;7.55;1.23;;;15.20;98.20;;;;;;4789713;30;20127;-75
2023/03/23 11:18:11;;;;;;;9.52;1.40;;;15.30;97.60;;;;;;4789099;30;20035;-76
2023/03/23 11:20:43;;;;;;;10.32;1.75;;;15.50;97.70;;;;;;4789674;30;20050;-76
2023/03/23 11:23:20;;;;;;;6.57;1.08;;;15.70;97.40;;;;;;4789483;30;20128;-76
2023/03/23 11:25:58;;;;;;;7.53;1.05;;;15.80;96.70;;;;;;4789580;30;20063;-76
2023/03/23 11:28:37;;;;;;;8.35;1.52;;;15.90;96.20;;;;;;4789050;30;20172;-76
2023/03/23 11:31:05;;;;;;;8.43;1.10;;;16.00;96.00;;;;;;4787734;30;20141;-76
2023/03/23 11:33:48;;;;;;;7.15;1.20;;;16.10;96.30;;;;;;4789428;30;20104;-75
2023/03/23 11:36:15;;;;;;;10.32;1.92;;;16.10;95.10;;;;;;4788866;30;20062;-76
2023/03/23 11:38:43;;;;;;;9.48;1.55;;;16.20;95.30;;;;;;4789186;30;20118;-76
2023/03/23 11:41:16;;;;;;;7.90;1.13;;;16.10;94.80;;;;;;4788804;30;20042;-73
2023/03/23 11:43:45;;;;;;;9.10;1.40;;;16.10;94.30;;;;;;4788890;30;20031;-74
2023/03/23 11:46:25;;;;;;;6.00;1.50;;;16.00;94.40;;;;;;4788990;30;20074;-73
2023/03/23 11:49:01;;;;;;;7.35;1.48;;;15.80;94.60;;;;;;4789306;30;20465;-74
2023/03/23 11:51:47;;;;;;;8.63;1.38;;;15.70;94.80;;;;;;4789452;30;20050;-73
2023/03/23 11:54:15;;;;;;;7.70;1.33;;;15.50;95.70;;;;;;4787835;30;20035;-75
2023/03/23 11:56:46;;;;;;;9.30;2.10;;;15.40;96.40;;;;;;4788842;30;20039;-73
2023/03/23 11:59:26;;;;;;;9.10;1.35;;;15.30;96.30;;;;;;4789169;30;20035;-72
2023/03/23 12:02:07;;;;;;;7.85;1.25;;;15.30;96.40;;;;;;4788822;30;20031;-74
2023/03/23 12:04:51;;;;;;;8.45;1.40;;;15.20;96.80;;;;;;4788372;30;20054;-74
2023/03/23 12:07:19;;;;;;;7.20;1.10;;;15.10;96.70;;;;;;4788594;30;20157;-74
2023/03/23 12:10:10;;;;;;;6.82;1.20;;;15.00;96.90;;;;;;4788859;30;20118;-74
2023/03/23 12:12:50;;;;;;;8.88;1.75;;;14.90;97.40;;;;;;4789196;30;20370;-74
2023/03/23 12:15:44;;;;;;;7.40;1.52;;;14.90;97.50;;;;;;4788982;30;20059;-73
2023/03/23 12:18:19;;;;;;;8.43;2.47;;;14.80;97.30;;;;;;4773274;30;20411;-74
2023/03/23 12:21:03;;;;;;;7.78;1.05;;;14.80;97.70;;;;;;4788591;30;20039;-73
2023/03/23 12:23:53;;;;;;;7.85;1.20;;;14.80;98.50;;;;;;4788476;30;20035;-73
2023/03/23 12:26:23;;;;;;;8.60;1.45;;;14.80;99.30;;;;;;4788431;30;20047;-74
2023/03/23 12:29:30;;;;;;;6.03;1.23;;;14.90;99.80;;;;;;4788270;30;20100;-74
2023/03/23 12:32:17;;;;;;;6.03;0.85;;;14.90;99.90;;;;;;4750663;30;20131;-74
2023/03/23 12:34:58;;;;;;;5.10;0.98;;;15.00;99.80;;;;;;4787517;30;20144;-73
2023/03/23 12:37:49;;;;;;;5.68;1.20;;;15.10;99.90;;;;;;4772086;30;20143;-74
2023/03/23 12:40:45;;;;;;;6.45;1.30;;;15.10;99.80;;;;;;4788968;30;20039;-74
2023/03/23 12:43:30;;;;;;;8.30;1.63;;;15.10;99.20;;;;;;4772187;30;20550;-80
2023/03/23 12:46:03;;;;;;;5.20;0.90;;;15.10;99.00;;;;;;4791014;30;20042;-80
2023/03/23 12:48:39;;;;;;;6.93;1.05;;;15.10;99.10;;;;;;4788735;30;20475;-80
2023/03/23 12:51:26;;;;;;;5.47;0.90;;;15.10;99.10;;;;;;4788328;30;20043;-79
2023/03/23 12:53:55;;;;;;;8.77;1.30;;;15.10;99.00;;;;;;4788475;30;20126;-80
2023/03/23 12:57:01;;;;;;;10.07;1.58;;;15.10;99.00;;;;;;4788281;30;20028;-80
2023/03/23 12:59:42;;;;;;;7.18;1.30;;;15.10;98.90;;;;;;4786524;30;20042;-80
2023/03/23 13:02:32;;;;;;;8.70;1.42;;;15.00;99.40;;;;;;4788294;30;20027;-80
2023/03/23 13:05:06;;;;;;;12.88;2.47;;;14.90;99.90;;;;;;4788643;30;20039;-81